sensor_id;sensor_type;location;lat;lon;timestamp;P1;durP1;ratioP1;P2;durP2;ratioP2
4754;SDS011;2391;47.212;7.542;2022-07-06T00:00:16;1.20;;;1.10;;
4754;SDS011;2391;47.212;7.542;2022-07-06T00:02:53;6.20;;;1.10;;
4754;SDS011;2391;47.212;7.542;2022-07-06T00:05:16;1.30;;;1.20;;
4754;SDS011;2391;47.212;7.542;2022-07-06T00:07:45;1.00;;;1.00;;
4754;SDS011;2391;47.212;7.542;2022-07-06T00:10:12;3.83;;;1.30;;
4754;SDS011;2391;47.212;7.542;2022-07-06T00:12:40;3.27;;;1.20;;
4754;SDS011;2391;47.212;7.542;2022-07-06T00:15:12;1.20;;;1.03;;
4754;SDS011;2391;47.212;7.542;2022-07-06T00:17:35;3.60;;;0.90;;
4754;SDS011;2391;47.212;7.542;2022-07-06T00:20:03;1.77;;;1.00;;
4754;SDS011;2391;47.212;7.542;2022-07-06T00:22:32;2.93;;;1.10;;
4754;SDS011;2391;47.212;7.542;2022-07-06T00:25:01;4.63;;;1.27;;
4754;SDS011;2391;47.212;7.542;2022-07-06T00:27:31;2.17;;;1.10;;
4754;SDS011;2391;47.212;7.542;2022-07-06T00:29:59;3.20;;;1.30;;
4754;SDS011;2391;47.212;7.542;2022-07-06T00:32:30;1.07;;;0.97;;
4754;SDS011;2391;47.212;7.542;2022-07-06T00:34:55;1.07;;;0.97;;
4754;SDS011;2391;47.212;7.542;2022-07-06T00:37:28;10.80;;;1.47;;
4754;SDS011;2391;47.212;7.542;2022-07-06T00:40:03;2.27;;;1.30;;
4754;SDS011;2391;47.212;7.542;2022-07-06T00:42:28;2.27;;;1.00;;
4754;SDS011;2391;47.212;7.542;2022-07-06T00:44:56;3.37;;;1.27;;
4754;SDS011;2391;47.212;7.542;2022-07-06T00:50:11;6.83;;;1.00;;
4754;SDS011;2391;47.212;7.542;2022-07-06T00:52:47;2.70;;;1.20;;
4754;SDS011;2391;47.212;7.542;2022-07-06T00:55:27;1.20;;;1.10;;
4754;SDS011;2391;47.212;7.542;2022-07-06T00:58:00;1.60;;;1.33;;
4754;SDS011;2391;47.212;7.542;2022-07-06T01:00:30;2.80;;;1.20;;
4754;SDS011;2391;47.212;7.542;2022-07-06T01:03:04;4.27;;;1.33;;
4754;SDS011;2391;47.212;7.542;2022-07-06T01:05:30;3.93;;;1.00;;
4754;SDS011;2391;47.212;7.542;2022-07-06T01:08:01;5.40;;;1.50;;
4754;SDS011;2391;47.212;7.542;2022-07-06T01:13:06;1.60;;;1.17;;
4754;SDS011;2391;47.212;7.542;2022-07-06T01:15:32;1.53;;;1.07;;
4754;SDS011;2391;47.212;7.542;2022-07-06T01:17:58;2.17;;;1.13;;
4754;SDS011;2391;47.212;7.542;2022-07-06T01:20:28;2.07;;;1.50;;
4754;SDS011;2391;47.212;7.542;2022-07-06T01:22:58;3.17;;;1.33;;
4754;SDS011;2391;47.212;7.542;2022-07-06T01:25:26;2.37;;;1.20;;
4754;SDS011;2391;47.212;7.542;2022-07-06T01:27:53;4.93;;;1.50;;
4754;SDS011;2391;47.212;7.542;2022-07-06T01:30:21;3.77;;;1.40;;
4754;SDS011;2391;47.212;7.542;2022-07-06T01:32:47;1.70;;;1.30;;
4754;SDS011;2391;47.212;7.542;2022-07-06T01:35:13;4.70;;;1.40;;
4754;SDS011;2391;47.212;7.542;2022-07-06T01:37:41;1.53;;;1.10;;
4754;SDS011;2391;47.212;7.542;2022-07-06T01:40:10;3.40;;;1.23;;
4754;SDS011;2391;47.212;7.542;2022-07-06T01:42:37;1.30;;;1.20;;
4754;SDS011;2391;47.212;7.542;2022-07-06T01:45:04;3.30;;;1.10;;
4754;SDS011;2391;47.212;7.542;2022-07-06T01:47:31;1.60;;;1.50;;
4754;SDS011;2391;47.212;7.542;2022-07-06T01:49:58;4.40;;;1.40;;
4754;SDS011;2391;47.212;7.542;2022-07-06T01:52:26;3.90;;;1.10;;
4754;SDS011;2391;47.212;7.542;2022-07-06T01:54:54;1.33;;;1.23;;
4754;SDS011;2391;47.212;7.542;2022-07-06T01:57:22;1.53;;;1.13;;
4754;SDS011;2391;47.212;7.542;2022-07-06T01:59:52;1.47;;;1.20;;
4754;SDS011;2391;47.212;7.542;2022-07-06T02:02:19;1.37;;;1.20;;
4754;SDS011;2391;47.212;7.542;2022-07-06T02:04:48;1.63;;;1.27;;
4754;SDS011;2391;47.212;7.542;2022-07-06T02:07:16;1.40;;;1.30;;
4754;SDS011;2391;47.212;7.542;2022-07-06T02:09:57;1.33;;;1.23;;
4754;SDS011;2391;47.212;7.542;2022-07-06T02:12:18;1.60;;;1.50;;
4754;SDS011;2391;47.212;7.542;2022-07-06T02:17:25;1.60;;;1.50;;
4754;SDS011;2391;47.212;7.542;2022-07-06T02:19:54;2.00;;;1.27;;
4754;SDS011;2391;47.212;7.542;2022-07-06T02:22:22;3.57;;;1.30;;
4754;SDS011;2391;47.212;7.542;2022-07-06T02:24:57;3.30;;;1.40;;
4754;SDS011;2391;47.212;7.542;2022-07-06T02:27:29;1.57;;;1.00;;
4754;SDS011;2391;47.212;7.542;2022-07-06T02:29:57;2.20;;;1.33;;
4754;SDS011;2391;47.212;7.542;2022-07-06T02:32:32;10.53;;;1.43;;
4754;SDS011;2391;47.212;7.542;2022-07-06T02:34:59;2.53;;;1.33;;
4754;SDS011;2391;47.212;7.542;2022-07-06T02:37:40;1.47;;;1.37;;
4754;SDS011;2391;47.212;7.542;2022-07-06T02:39:59;2.23;;;1.20;;
4754;SDS011;2391;47.212;7.542;2022-07-06T02:42:39;4.13;;;1.30;;
4754;SDS011;2391;47.212;7.542;2022-07-06T02:45:13;2.10;;;1.27;;
4754;SDS011;2391;47.212;7.542;2022-07-06T02:48:04;5.43;;;1.37;;
4754;SDS011;2391;47.212;7.542;2022-07-06T02:53:13;1.40;;;1.30;;
4754;SDS011;2391;47.212;7.542;2022-07-06T02:58:39;5.30;;;1.60;;
4754;SDS011;2391;47.212;7.542;2022-07-06T03:01:18;2.70;;;1.00;;
4754;SDS011;2391;47.212;7.542;2022-07-06T03:04:12;4.30;;;1.80;;
4754;SDS011;2391;47.212;7.542;2022-07-06T03:06:53;4.40;;;1.20;;
4754;SDS011;2391;47.212;7.542;2022-07-06T03:09:26;1.93;;;1.00;;
4754;SDS011;2391;47.212;7.542;2022-07-06T03:12:04;4.13;;;1.17;;
4754;SDS011;2391;47.212;7.542;2022-07-06T03:14:42;6.83;;;1.20;;
4754;SDS011;2391;47.212;7.542;2022-07-06T03:17:21;1.87;;;1.00;;
4754;SDS011;2391;47.212;7.542;2022-07-06T03:19:54;3.53;;;2.13;;
4754;SDS011;2391;47.212;7.542;2022-07-06T03:22:30;0.97;;;0.87;;
4754;SDS011;2391;47.212;7.542;2022-07-06T03:25:02;1.70;;;1.20;;
4754;SDS011;2391;47.212;7.542;2022-07-06T03:27:31;4.30;;;1.10;;
4754;SDS011;2391;47.212;7.542;2022-07-06T03:30:00;2.03;;;1.43;;
4754;SDS011;2391;47.212;7.542;2022-07-06T03:32:26;1.40;;;1.10;;
4754;SDS011;2391;47.212;7.542;2022-07-06T03:35:03;2.30;;;1.17;;
4754;SDS011;2391;47.212;7.542;2022-07-06T03:37:28;1.20;;;1.10;;
4754;SDS011;2391;47.212;7.542;2022-07-06T03:40:06;3.60;;;1.10;;
4754;SDS011;2391;47.212;7.542;2022-07-06T03:42:47;1.07;;;0.97;;
4754;SDS011;2391;47.212;7.542;2022-07-06T03:45:23;2.03;;;1.20;;
4754;SDS011;2391;47.212;7.542;2022-07-06T03:47:48;1.90;;;0.90;;
4754;SDS011;2391;47.212;7.542;2022-07-06T03:52:58;4.50;;;1.03;;
4754;SDS011;2391;47.212;7.542;2022-07-06T03:55:39;1.43;;;1.33;;
4754;SDS011;2391;47.212;7.542;2022-07-06T03:57:59;2.50;;;1.10;;
4754;SDS011;2391;47.212;7.542;2022-07-06T04:00:27;0.90;;;0.90;;
4754;SDS011;2391;47.212;7.542;2022-07-06T04:03:07;1.27;;;1.17;;
4754;SDS011;2391;47.212;7.542;2022-07-06T04:05:33;3.33;;;1.77;;
4754;SDS011;2391;47.212;7.542;2022-07-06T04:48:41;1.93;;;1.17;;
4754;SDS011;2391;47.212;7.542;2022-07-06T04:51:07;0.90;;;0.90;;
4754;SDS011;2391;47.212;7.542;2022-07-06T04:53:33;2.70;;;1.03;;
4754;SDS011;2391;47.212;7.542;2022-07-06T04:55:59;2.03;;;1.10;;
4754;SDS011;2391;47.212;7.542;2022-07-06T04:58:25;2.07;;;1.10;;
4754;SDS011;2391;47.212;7.542;2022-07-06T05:00:51;1.43;;;1.33;;
4754;SDS011;2391;47.212;7.542;2022-07-06T05:03:19;3.60;;;1.23;;
4754;SDS011;2391;47.212;7.542;2022-07-06T05:05:45;2.80;;;1.00;;
4754;SDS011;2391;47.212;7.542;2022-07-06T05:08:11;2.60;;;1.40;;
4754;SDS011;2391;47.212;7.542;2022-07-06T05:10:37;4.77;;;1.00;;
4754;SDS011;2391;47.212;7.542;2022-07-06T05:13:03;3.30;;;1.40;;
4754;SDS011;2391;47.212;7.542;2022-07-06T05:15:30;1.63;;;1.20;;
4754;SDS011;2391;47.212;7.542;2022-07-06T05:17:56;2.10;;;0.90;;
4754;SDS011;2391;47.212;7.542;2022-07-06T05:20:22;4.10;;;1.17;;
4754;SDS011;2391;47.212;7.542;2022-07-06T05:22:48;1.30;;;1.20;;
4754;SDS011;2391;47.212;7.542;2022-07-06T05:25:14;1.40;;;1.30;;
4754;SDS011;2391;47.212;7.542;2022-07-06T05:27:40;1.13;;;1.03;;
4754;SDS011;2391;47.212;7.542;2022-07-06T05:30:06;5.33;;;1.33;;
4754;SDS011;2391;47.212;7.542;2022-07-06T05:32:33;2.50;;;1.17;;
4754;SDS011;2391;47.212;7.542;2022-07-06T05:34:59;1.23;;;1.13;;
4754;SDS011;2391;47.212;7.542;2022-07-06T05:37:25;5.63;;;1.90;;
4754;SDS011;2391;47.212;7.542;2022-07-06T05:39:51;1.90;;;1.67;;
4754;SDS011;2391;47.212;7.542;2022-07-06T05:42:17;2.53;;;1.87;;
4754;SDS011;2391;47.212;7.542;2022-07-06T05:44:43;3.20;;;2.33;;
4754;SDS011;2391;47.212;7.542;2022-07-06T05:47:09;5.30;;;2.40;;
4754;SDS011;2391;47.212;7.542;2022-07-06T05:49:53;4.23;;;2.40;;
4754;SDS011;2391;47.212;7.542;2022-07-06T05:52:38;7.63;;;2.13;;
4754;SDS011;2391;47.212;7.542;2022-07-06T05:55:10;3.90;;;2.80;;
4754;SDS011;2391;47.212;7.542;2022-07-06T05:57:36;7.23;;;3.93;;
4754;SDS011;2391;47.212;7.542;2022-07-06T06:00:04;7.53;;;2.30;;
4754;SDS011;2391;47.212;7.542;2022-07-06T06:02:40;9.10;;;2.37;;
4754;SDS011;2391;47.212;7.542;2022-07-06T06:05:07;4.33;;;2.63;;
4754;SDS011;2391;47.212;7.542;2022-07-06T06:07:40;9.43;;;2.00;;
4754;SDS011;2391;47.212;7.542;2022-07-06T06:10:04;4.27;;;2.00;;
4754;SDS011;2391;47.212;7.542;2022-07-06T06:12:33;2.60;;;1.90;;
4754;SDS011;2391;47.212;7.542;2022-07-06T06:14:59;3.43;;;1.47;;
4754;SDS011;2391;47.212;7.542;2022-07-06T06:17:25;3.00;;;1.53;;
4754;SDS011;2391;47.212;7.542;2022-07-06T06:19:51;3.13;;;1.60;;
4754;SDS011;2391;47.212;7.542;2022-07-06T06:22:17;4.93;;;1.90;;
4754;SDS011;2391;47.212;7.542;2022-07-06T06:24:43;2.80;;;1.57;;
4754;SDS011;2391;47.212;7.542;2022-07-06T06:27:09;2.43;;;1.90;;
4754;SDS011;2391;47.212;7.542;2022-07-06T06:29:39;2.60;;;1.50;;
4754;SDS011;2391;47.212;7.542;2022-07-06T06:32:06;1.60;;;1.50;;
4754;SDS011;2391;47.212;7.542;2022-07-06T06:34:34;2.53;;;1.20;;
4754;SDS011;2391;47.212;7.542;2022-07-06T06:37:00;3.37;;;1.27;;
4754;SDS011;2391;47.212;7.542;2022-07-06T06:39:27;2.50;;;1.40;;
4754;SDS011;2391;47.212;7.542;2022-07-06T06:41:53;3.60;;;1.60;;
4754;SDS011;2391;47.212;7.542;2022-07-06T06:44:23;5.87;;;1.80;;
4754;SDS011;2391;47.212;7.542;2022-07-06T06:46:51;10.90;;;1.60;;
4754;SDS011;2391;47.212;7.542;2022-07-06T06:49:19;3.40;;;1.53;;
4754;SDS011;2391;47.212;7.542;2022-07-06T06:51:45;5.33;;;1.50;;
4754;SDS011;2391;47.212;7.542;2022-07-06T06:54:13;3.13;;;2.10;;
4754;SDS011;2391;47.212;7.542;2022-07-06T06:56:41;2.03;;;1.10;;
4754;SDS011;2391;47.212;7.542;2022-07-06T06:59:09;4.03;;;1.37;;
4754;SDS011;2391;47.212;7.542;2022-07-06T07:01:37;1.77;;;1.33;;
4754;SDS011;2391;47.212;7.542;2022-07-06T07:04:11;1.30;;;1.20;;
4754;SDS011;2391;47.212;7.542;2022-07-06T07:06:36;2.63;;;1.73;;
4754;SDS011;2391;47.212;7.542;2022-07-06T07:09:07;7.73;;;1.50;;
4754;SDS011;2391;47.212;7.542;2022-07-06T07:11:33;1.53;;;1.43;;
4754;SDS011;2391;47.212;7.542;2022-07-06T07:14:01;3.20;;;1.47;;
4754;SDS011;2391;47.212;7.542;2022-07-06T07:16:27;5.30;;;1.10;;
4754;SDS011;2391;47.212;7.542;2022-07-06T07:18:53;1.70;;;1.17;;
4754;SDS011;2391;47.212;7.542;2022-07-06T07:21:23;6.47;;;1.43;;
4754;SDS011;2391;47.212;7.542;2022-07-06T07:23:49;3.90;;;1.60;;
4754;SDS011;2391;47.212;7.542;2022-07-06T07:26:15;10.03;;;1.27;;
4754;SDS011;2391;47.212;7.542;2022-07-06T07:28:44;2.57;;;1.17;;
4754;SDS011;2391;47.212;7.542;2022-07-06T07:31:10;3.53;;;1.37;;
4754;SDS011;2391;47.212;7.542;2022-07-06T07:33:36;1.83;;;1.20;;
4754;SDS011;2391;47.212;7.542;2022-07-06T07:36:02;6.13;;;1.97;;
4754;SDS011;2391;47.212;7.542;2022-07-06T07:38:28;2.40;;;1.53;;
4754;SDS011;2391;47.212;7.542;2022-07-06T07:40:56;2.33;;;1.43;;
4754;SDS011;2391;47.212;7.542;2022-07-06T07:43:22;12.30;;;1.30;;
4754;SDS011;2391;47.212;7.542;2022-07-06T07:45:48;3.20;;;1.30;;
4754;SDS011;2391;47.212;7.542;2022-07-06T07:48:19;1.10;;;1.00;;
4754;SDS011;2391;47.212;7.542;2022-07-06T07:50:46;1.30;;;1.20;;
4754;SDS011;2391;47.212;7.542;2022-07-06T07:53:12;2.10;;;1.53;;
4754;SDS011;2391;47.212;7.542;2022-07-06T07:55:55;1.03;;;1.00;;
4754;SDS011;2391;47.212;7.542;2022-07-06T07:58:13;1.10;;;0.83;;
4754;SDS011;2391;47.212;7.542;2022-07-06T08:00:46;2.23;;;0.97;;
4754;SDS011;2391;47.212;7.542;2022-07-06T08:09:09;1.03;;;1.00;;
4754;SDS011;2391;47.212;7.542;2022-07-06T08:11:32;20.57;;;1.53;;
4754;SDS011;2391;47.212;7.542;2022-07-06T08:14:07;2.20;;;1.07;;
4754;SDS011;2391;47.212;7.542;2022-07-06T08:16:35;1.37;;;1.20;;
4754;SDS011;2391;47.212;7.542;2022-07-06T08:19:07;1.37;;;1.20;;
4754;SDS011;2391;47.212;7.542;2022-07-06T08:21:35;1.97;;;0.93;;
4754;SDS011;2391;47.212;7.542;2022-07-06T08:29:37;1.83;;;1.03;;
4754;SDS011;2391;47.212;7.542;2022-07-06T08:32:23;5.73;;;1.07;;
4754;SDS011;2391;47.212;7.542;2022-07-06T08:37:38;2.50;;;1.23;;
4754;SDS011;2391;47.212;7.542;2022-07-06T08:40:08;1.63;;;1.50;;
4754;SDS011;2391;47.212;7.542;2022-07-06T08:42:37;4.53;;;1.37;;
4754;SDS011;2391;47.212;7.542;2022-07-06T08:45:04;5.47;;;1.23;;
4754;SDS011;2391;47.212;7.542;2022-07-06T08:47:32;3.70;;;1.47;;
4754;SDS011;2391;47.212;7.542;2022-07-06T08:50:05;2.43;;;1.07;;
4754;SDS011;2391;47.212;7.542;2022-07-06T08:52:38;1.57;;;1.20;;
4754;SDS011;2391;47.212;7.542;2022-07-06T08:55:02;3.80;;;1.10;;
4754;SDS011;2391;47.212;7.542;2022-07-06T08:57:33;1.23;;;0.93;;
4754;SDS011;2391;47.212;7.542;2022-07-06T09:00:04;2.30;;;1.20;;
4754;SDS011;2391;47.212;7.542;2022-07-06T15:19:31;1.13;;;1.03;;
4754;SDS011;2391;47.212;7.542;2022-07-06T15:21:57;3.13;;;1.00;;
4754;SDS011;2391;47.212;7.542;2022-07-06T15:24:28;1.33;;;0.83;;
4754;SDS011;2391;47.212;7.542;2022-07-06T15:26:53;1.37;;;0.90;;
4754;SDS011;2391;47.212;7.542;2022-07-06T15:29:19;3.23;;;0.97;;
4754;SDS011;2391;47.212;7.542;2022-07-06T15:31:53;2.50;;;0.90;;
4754;SDS011;2391;47.212;7.542;2022-07-06T15:34:21;1.30;;;1.20;;
4754;SDS011;2391;47.212;7.542;2022-07-06T15:36:49;1.10;;;1.00;;
4754;SDS011;2391;47.212;7.542;2022-07-06T15:39:23;1.00;;;1.00;;
4754;SDS011;2391;47.212;7.542;2022-07-06T15:41:54;1.67;;;1.20;;
4754;SDS011;2391;47.212;7.542;2022-07-06T15:44:24;0.97;;;0.93;;
4754;SDS011;2391;47.212;7.542;2022-07-06T15:46:56;3.17;;;1.20;;
4754;SDS011;2391;47.212;7.542;2022-07-06T15:49:30;1.20;;;1.10;;
4754;SDS011;2391;47.212;7.542;2022-07-06T15:52:07;1.87;;;0.97;;
4754;SDS011;2391;47.212;7.542;2022-07-06T15:54:27;1.00;;;0.90;;
4754;SDS011;2391;47.212;7.542;2022-07-06T15:56:56;2.30;;;1.17;;
4754;SDS011;2391;47.212;7.542;2022-07-06T15:59:22;2.70;;;1.33;;
4754;SDS011;2391;47.212;7.542;2022-07-06T16:01:55;4.93;;;1.00;;
4754;SDS011;2391;47.212;7.542;2022-07-06T16:04:23;1.70;;;1.00;;
4754;SDS011;2391;47.212;7.542;2022-07-06T16:06:52;1.23;;;1.07;;
4754;SDS011;2391;47.212;7.542;2022-07-06T16:09:18;0.90;;;0.90;;
4754;SDS011;2391;47.212;7.542;2022-07-06T16:11:44;0.90;;;0.90;;
4754;SDS011;2391;47.212;7.542;2022-07-06T16:14:10;4.23;;;0.90;;
4754;SDS011;2391;47.212;7.542;2022-07-06T16:16:42;0.80;;;0.80;;
4754;SDS011;2391;47.212;7.542;2022-07-06T16:19:13;1.60;;;0.80;;
4754;SDS011;2391;47.212;7.542;2022-07-06T16:21:44;1.67;;;0.90;;
4754;SDS011;2391;47.212;7.542;2022-07-06T16:24:08;1.03;;;0.93;;
4754;SDS011;2391;47.212;7.542;2022-07-06T16:26:34;1.00;;;0.90;;
4754;SDS011;2391;47.212;7.542;2022-07-06T16:29:01;1.00;;;0.90;;
4754;SDS011;2391;47.212;7.542;2022-07-06T16:31:29;4.67;;;0.90;;
4754;SDS011;2391;47.212;7.542;2022-07-06T16:33:55;1.00;;;1.00;;
4754;SDS011;2391;47.212;7.542;2022-07-06T16:36:21;1.53;;;1.10;;
4754;SDS011;2391;47.212;7.542;2022-07-06T16:38:49;0.80;;;0.80;;
4754;SDS011;2391;47.212;7.542;2022-07-06T16:41:15;0.97;;;0.90;;
4754;SDS011;2391;47.212;7.542;2022-07-06T16:43:41;1.10;;;0.87;;
4754;SDS011;2391;47.212;7.542;2022-07-06T16:46:07;1.93;;;1.17;;
4754;SDS011;2391;47.212;7.542;2022-07-06T16:48:34;2.13;;;1.00;;
4754;SDS011;2391;47.212;7.542;2022-07-06T16:51:01;0.70;;;0.70;;
4754;SDS011;2391;47.212;7.542;2022-07-06T16:53:27;1.03;;;0.93;;
4754;SDS011;2391;47.212;7.542;2022-07-06T16:55:53;0.80;;;0.80;;
4754;SDS011;2391;47.212;7.542;2022-07-06T16:58:20;2.80;;;0.87;;
4754;SDS011;2391;47.212;7.542;2022-07-06T17:00:46;1.37;;;1.00;;
4754;SDS011;2391;47.212;7.542;2022-07-06T17:03:12;1.47;;;1.00;;
4754;SDS011;2391;47.212;7.542;2022-07-06T17:05:38;1.00;;;1.00;;
4754;SDS011;2391;47.212;7.542;2022-07-06T17:08:05;1.60;;;1.00;;
4754;SDS011;2391;47.212;7.542;2022-07-06T17:10:32;1.17;;;0.90;;
4754;SDS011;2391;47.212;7.542;2022-07-06T17:12:58;1.10;;;0.80;;
4754;SDS011;2391;47.212;7.542;2022-07-06T17:15:24;4.23;;;1.00;;
4754;SDS011;2391;47.212;7.542;2022-07-06T17:17:50;1.53;;;1.20;;
4754;SDS011;2391;47.212;7.542;2022-07-06T17:20:16;2.33;;;0.83;;
4754;SDS011;2391;47.212;7.542;2022-07-06T17:22:44;0.90;;;0.90;;
4754;SDS011;2391;47.212;7.542;2022-07-06T17:25:10;0.93;;;0.83;;
4754;SDS011;2391;47.212;7.542;2022-07-06T17:27:36;1.40;;;1.10;;
4754;SDS011;2391;47.212;7.542;2022-07-06T17:30:02;1.47;;;1.10;;
4754;SDS011;2391;47.212;7.542;2022-07-06T17:32:29;2.03;;;1.07;;
4754;SDS011;2391;47.212;7.542;2022-07-06T17:34:57;1.67;;;0.93;;
4754;SDS011;2391;47.212;7.542;2022-07-06T17:37:23;1.30;;;1.20;;
4754;SDS011;2391;47.212;7.542;2022-07-06T17:39:53;1.70;;;1.40;;
4754;SDS011;2391;47.212;7.542;2022-07-06T17:42:17;2.70;;;1.00;;
4754;SDS011;2391;47.212;7.542;2022-07-06T17:44:45;5.33;;;1.20;;
4754;SDS011;2391;47.212;7.542;2022-07-06T17:47:11;2.83;;;1.10;;
4754;SDS011;2391;47.212;7.542;2022-07-06T17:49:39;3.03;;;1.00;;
4754;SDS011;2391;47.212;7.542;2022-07-06T17:52:05;1.57;;;1.13;;
4754;SDS011;2391;47.212;7.542;2022-07-06T17:54:34;3.20;;;1.40;;
4754;SDS011;2391;47.212;7.542;2022-07-06T17:57:00;1.20;;;1.07;;
4754;SDS011;2391;47.212;7.542;2022-07-06T17:59:26;2.97;;;1.20;;
4754;SDS011;2391;47.212;7.542;2022-07-06T18:01:52;2.27;;;1.30;;
4754;SDS011;2391;47.212;7.542;2022-07-06T18:04:19;1.80;;;1.20;;
4754;SDS011;2391;47.212;7.542;2022-07-06T18:06:47;1.67;;;1.23;;
4754;SDS011;2391;47.212;7.542;2022-07-06T18:09:15;1.30;;;1.20;;
4754;SDS011;2391;47.212;7.542;2022-07-06T18:11:41;2.93;;;1.17;;
4754;SDS011;2391;47.212;7.542;2022-07-06T18:14:07;1.63;;;1.30;;
4754;SDS011;2391;47.212;7.542;2022-07-06T18:16:33;5.10;;;1.30;;
4754;SDS011;2391;47.212;7.542;2022-07-06T18:18:59;1.20;;;1.10;;
4754;SDS011;2391;47.212;7.542;2022-07-06T18:21:25;1.57;;;1.47;;
4754;SDS011;2391;47.212;7.542;2022-07-06T18:23:51;6.10;;;1.50;;
4754;SDS011;2391;47.212;7.542;2022-07-06T18:26:17;3.50;;;1.60;;
4754;SDS011;2391;47.212;7.542;2022-07-06T18:28:43;1.33;;;1.07;;
4754;SDS011;2391;47.212;7.542;2022-07-06T18:31:09;8.40;;;1.67;;
4754;SDS011;2391;47.212;7.542;2022-07-06T18:33:36;2.33;;;1.20;;
4754;SDS011;2391;47.212;7.542;2022-07-06T18:36:02;4.60;;;1.40;;
4754;SDS011;2391;47.212;7.542;2022-07-06T18:38:33;5.43;;;1.53;;
4754;SDS011;2391;47.212;7.542;2022-07-06T18:41:03;4.07;;;1.53;;
4754;SDS011;2391;47.212;7.542;2022-07-06T18:43:29;3.30;;;1.50;;
4754;SDS011;2391;47.212;7.542;2022-07-06T18:45:56;2.60;;;1.50;;
4754;SDS011;2391;47.212;7.542;2022-07-06T18:48:22;8.83;;;1.40;;
4754;SDS011;2391;47.212;7.542;2022-07-06T18:50:49;4.37;;;1.50;;
4754;SDS011;2391;47.212;7.542;2022-07-06T18:53:18;1.80;;;1.70;;
4754;SDS011;2391;47.212;7.542;2022-07-06T18:55:45;2.50;;;1.60;;
4754;SDS011;2391;47.212;7.542;2022-07-06T18:58:14;6.30;;;1.27;;
4754;SDS011;2391;47.212;7.542;2022-07-06T19:00:40;3.23;;;1.90;;
4754;SDS011;2391;47.212;7.542;2022-07-06T19:03:06;4.90;;;1.80;;
4754;SDS011;2391;47.212;7.542;2022-07-06T19:05:32;8.03;;;1.70;;
4754;SDS011;2391;47.212;7.542;2022-07-06T19:08:00;1.40;;;1.30;;
4754;SDS011;2391;47.212;7.542;2022-07-06T19:10:26;5.10;;;1.37;;
4754;SDS011;2391;47.212;7.542;2022-07-06T19:12:54;4.10;;;1.20;;
4754;SDS011;2391;47.212;7.542;2022-07-06T19:15:20;1.70;;;1.43;;
4754;SDS011;2391;47.212;7.542;2022-07-06T19:17:46;1.70;;;1.30;;
4754;SDS011;2391;47.212;7.542;2022-07-06T19:20:14;3.80;;;1.30;;
4754;SDS011;2391;47.212;7.542;2022-07-06T19:22:40;4.07;;;1.50;;
4754;SDS011;2391;47.212;7.542;2022-07-06T19:25:07;3.57;;;1.73;;
4754;SDS011;2391;47.212;7.542;2022-07-06T19:27:34;3.13;;;1.27;;
4754;SDS011;2391;47.212;7.542;2022-07-06T19:30:00;1.30;;;1.20;;
4754;SDS011;2391;47.212;7.542;2022-07-06T19:32:26;3.37;;;1.80;;
4754;SDS011;2391;47.212;7.542;2022-07-06T19:34:52;1.73;;;1.50;;
4754;SDS011;2391;47.212;7.542;2022-07-06T19:37:19;1.30;;;1.20;;
4754;SDS011;2391;47.212;7.542;2022-07-06T19:39:45;1.80;;;1.10;;
4754;SDS011;2391;47.212;7.542;2022-07-06T19:42:11;3.17;;;1.40;;
4754;SDS011;2391;47.212;7.542;2022-07-06T19:44:37;2.50;;;1.40;;
4754;SDS011;2391;47.212;7.542;2022-07-06T19:47:03;1.20;;;1.10;;
4754;SDS011;2391;47.212;7.542;2022-07-06T19:49:29;1.27;;;1.00;;
4754;SDS011;2391;47.212;7.542;2022-07-06T19:51:55;8.00;;;1.40;;
4754;SDS011;2391;47.212;7.542;2022-07-06T19:54:21;1.50;;;1.37;;
4754;SDS011;2391;47.212;7.542;2022-07-06T19:56:47;2.47;;;1.40;;
4754;SDS011;2391;47.212;7.542;2022-07-06T19:59:13;1.27;;;1.07;;
4754;SDS011;2391;47.212;7.542;2022-07-06T20:01:39;1.20;;;0.97;;
4754;SDS011;2391;47.212;7.542;2022-07-06T20:04:07;2.60;;;1.10;;
4754;SDS011;2391;47.212;7.542;2022-07-06T20:06:34;0.90;;;0.90;;
4754;SDS011;2391;47.212;7.542;2022-07-06T20:09:02;3.23;;;1.10;;
4754;SDS011;2391;47.212;7.542;2022-07-06T20:11:29;2.27;;;1.07;;
4754;SDS011;2391;47.212;7.542;2022-07-06T20:13:56;1.57;;;0.90;;
4754;SDS011;2391;47.212;7.542;2022-07-06T20:16:22;1.63;;;0.90;;
4754;SDS011;2391;47.212;7.542;2022-07-06T20:18:48;1.37;;;1.20;;
4754;SDS011;2391;47.212;7.542;2022-07-06T20:21:14;1.10;;;1.10;;
4754;SDS011;2391;47.212;7.542;2022-07-06T20:23:40;1.20;;;1.10;;
4754;SDS011;2391;47.212;7.542;2022-07-06T20:26:06;0.97;;;0.90;;
4754;SDS011;2391;47.212;7.542;2022-07-06T20:28:32;1.20;;;1.10;;
4754;SDS011;2391;47.212;7.542;2022-07-06T20:30:58;5.03;;;1.30;;
4754;SDS011;2391;47.212;7.542;2022-07-06T20:33:25;2.83;;;1.03;;
4754;SDS011;2391;47.212;7.542;2022-07-06T20:35:52;3.60;;;1.20;;
4754;SDS011;2391;47.212;7.542;2022-07-06T20:38:19;1.30;;;1.20;;
4754;SDS011;2391;47.212;7.542;2022-07-06T20:40:45;2.27;;;1.20;;
4754;SDS011;2391;47.212;7.542;2022-07-06T20:43:11;3.07;;;1.37;;
4754;SDS011;2391;47.212;7.542;2022-07-06T20:45:37;3.83;;;1.37;;
4754;SDS011;2391;47.212;7.542;2022-07-06T20:48:03;3.23;;;1.00;;
4754;SDS011;2391;47.212;7.542;2022-07-06T20:50:30;4.03;;;1.00;;
4754;SDS011;2391;47.212;7.542;2022-07-06T20:52:56;1.20;;;1.10;;
4754;SDS011;2391;47.212;7.542;2022-07-06T20:55:22;0.93;;;0.90;;
4754;SDS011;2391;47.212;7.542;2022-07-06T20:57:52;1.40;;;1.10;;
4754;SDS011;2391;47.212;7.542;2022-07-06T21:00:16;2.50;;;1.00;;
4754;SDS011;2391;47.212;7.542;2022-07-06T21:02:42;1.40;;;1.03;;
4754;SDS011;2391;47.212;7.542;2022-07-06T21:05:08;1.33;;;0.80;;
4754;SDS011;2391;47.212;7.542;2022-07-06T21:07:34;1.93;;;0.90;;
4754;SDS011;2391;47.212;7.542;2022-07-06T21:10:00;3.13;;;0.90;;
4754;SDS011;2391;47.212;7.542;2022-07-06T21:12:26;1.00;;;1.00;;
4754;SDS011;2391;47.212;7.542;2022-07-06T21:14:54;2.57;;;1.20;;
4754;SDS011;2391;47.212;7.542;2022-07-06T21:17:20;1.10;;;0.90;;
4754;SDS011;2391;47.212;7.542;2022-07-06T21:19:46;2.20;;;1.10;;
4754;SDS011;2391;47.212;7.542;2022-07-06T21:22:12;5.03;;;1.10;;
4754;SDS011;2391;47.212;7.542;2022-07-06T21:24:38;4.03;;;1.43;;
4754;SDS011;2391;47.212;7.542;2022-07-06T21:27:04;1.20;;;1.10;;
4754;SDS011;2391;47.212;7.542;2022-07-06T21:29:31;2.10;;;1.30;;
4754;SDS011;2391;47.212;7.542;2022-07-06T21:31:57;3.00;;;1.10;;
4754;SDS011;2391;47.212;7.542;2022-07-06T21:34:25;2.80;;;1.00;;
4754;SDS011;2391;47.212;7.542;2022-07-06T21:36:51;1.20;;;1.03;;
4754;SDS011;2391;47.212;7.542;2022-07-06T21:39:17;1.47;;;1.37;;
4754;SDS011;2391;47.212;7.542;2022-07-06T21:41:43;1.30;;;1.10;;
4754;SDS011;2391;47.212;7.542;2022-07-06T21:44:09;1.23;;;1.10;;
4754;SDS011;2391;47.212;7.542;2022-07-06T21:46:35;1.40;;;1.30;;
4754;SDS011;2391;47.212;7.542;2022-07-06T21:49:01;2.73;;;1.00;;
4754;SDS011;2391;47.212;7.542;2022-07-06T21:51:27;1.20;;;1.10;;
4754;SDS011;2391;47.212;7.542;2022-07-06T21:53:53;1.87;;;1.20;;
4754;SDS011;2391;47.212;7.542;2022-07-06T21:56:19;2.07;;;1.30;;
4754;SDS011;2391;47.212;7.542;2022-07-06T21:58:45;1.50;;;1.20;;
4754;SDS011;2391;47.212;7.542;2022-07-06T22:01:11;1.07;;;1.00;;
4754;SDS011;2391;47.212;7.542;2022-07-06T22:03:38;1.27;;;1.17;;
4754;SDS011;2391;47.212;7.542;2022-07-06T22:06:04;3.93;;;1.17;;
4754;SDS011;2391;47.212;7.542;2022-07-06T22:08:30;2.90;;;1.43;;
4754;SDS011;2391;47.212;7.542;2022-07-06T22:10:56;1.33;;;1.23;;
4754;SDS011;2391;47.212;7.542;2022-07-06T22:13:22;3.63;;;1.40;;
4754;SDS011;2391;47.212;7.542;2022-07-06T22:16:07;6.00;;;1.43;;
4754;SDS011;2391;47.212;7.542;2022-07-06T22:18:35;3.73;;;1.33;;
4754;SDS011;2391;47.212;7.542;2022-07-06T22:21:01;2.80;;;2.23;;
4754;SDS011;2391;47.212;7.542;2022-07-06T22:23:27;2.93;;;2.10;;
4754;SDS011;2391;47.212;7.542;2022-07-06T22:25:56;3.37;;;1.30;;
4754;SDS011;2391;47.212;7.542;2022-07-06T22:31:35;4.50;;;1.40;;
4754;SDS011;2391;47.212;7.542;2022-07-06T22:37:11;4.10;;;0.90;;
4754;SDS011;2391;47.212;7.542;2022-07-06T22:42:22;1.80;;;1.00;;
4754;SDS011;2391;47.212;7.542;2022-07-06T22:44:46;1.63;;;1.20;;
4754;SDS011;2391;47.212;7.542;2022-07-06T22:47:14;2.20;;;1.03;;
4754;SDS011;2391;47.212;7.542;2022-07-06T22:49:44;1.30;;;1.20;;
4754;SDS011;2391;47.212;7.542;2022-07-06T22:52:11;1.47;;;0.97;;
4754;SDS011;2391;47.212;7.542;2022-07-06T22:54:37;5.80;;;1.13;;
4754;SDS011;2391;47.212;7.542;2022-07-06T22:57:04;3.50;;;1.20;;